createdAt,value
2018-12-08T00:02:13.687Z,4.43
2018-12-08T00:04:41.348Z,5.90
2018-12-08T00:07:08.917Z,6.53
2018-12-08T00:09:36.547Z,7.63
2018-12-08T00:12:04.538Z,5.40
2018-12-08T00:14:32.094Z,7.63
2018-12-08T00:16:59.617Z,7.07
2018-12-08T00:19:27.380Z,7.40
2018-12-08T00:21:55.237Z,3.60
2018-12-08T00:24:22.815Z,6.17
2018-12-08T00:26:50.324Z,7.17
2018-12-08T00:29:18.017Z,7.63
2018-12-08T00:31:45.561Z,9.30
2018-12-08T00:34:13.105Z,7.83
2018-12-08T00:36:40.642Z,7.63
2018-12-08T00:39:08.462Z,9.47
2018-12-08T00:41:36.008Z,9.60
2018-12-08T00:44:03.537Z,13.47
2018-12-08T00:46:31.297Z,10.67
2018-12-08T00:48:58.877Z,7.93
2018-12-08T00:51:26.599Z,12.30
2018-12-08T00:53:54.179Z,8.07
2018-12-08T00:56:21.892Z,11.10
2018-12-08T00:58:49.529Z,13.97
2018-12-08T01:01:17.197Z,9.53
2018-12-08T01:03:44.733Z,8.80
2018-12-08T01:06:12.283Z,12.20
2018-12-08T01:08:39.833Z,9.00
2018-12-08T01:11:07.394Z,12.93
2018-12-08T01:13:34.967Z,7.40
2018-12-08T01:16:02.653Z,15.63
2018-12-08T01:18:30.217Z,13.50
2018-12-08T01:20:57.742Z,9.07
2018-12-08T01:23:25.653Z,8.13
2018-12-08T01:25:53.234Z,10.77
2018-12-08T01:28:20.827Z,9.60
2018-12-08T01:30:48.757Z,10.37
2018-12-08T01:33:16.562Z,16.73
2018-12-08T01:35:44.277Z,8.90
2018-12-08T01:38:11.818Z,10.30
2018-12-08T01:40:39.533Z,10.93
2018-12-08T01:43:07.107Z,20.27
2018-12-08T01:45:34.673Z,9.57
2018-12-08T01:48:02.249Z,11.00
2018-12-08T01:50:29.783Z,9.97
2018-12-08T01:52:57.356Z,8.27
2018-12-08T01:55:24.864Z,11.97
2018-12-08T01:57:52.457Z,10.50
2018-12-08T02:00:20.008Z,12.43
2018-12-08T02:02:47.553Z,10.90
2018-12-08T02:05:15.099Z,11.60
2018-12-08T02:07:42.941Z,12.10
2018-12-08T02:10:10.498Z,8.00
2018-12-08T02:12:38.215Z,15.63
2018-12-08T02:15:05.800Z,14.77
2018-12-08T02:17:33.408Z,8.80
2018-12-08T02:20:01.202Z,12.40
2018-12-08T02:22:28.752Z,11.30
2018-12-08T02:24:56.406Z,5.83
2018-12-08T02:27:23.910Z,7.97
2018-12-08T02:29:51.431Z,11.23
2018-12-08T02:32:18.996Z,12.50
2018-12-08T02:34:46.541Z,9.33
2018-12-08T02:37:14.105Z,11.00
2018-12-08T02:39:41.645Z,6.70
2018-12-08T02:42:09.193Z,10.03
2018-12-08T02:44:36.795Z,10.20
2018-12-08T02:47:04.526Z,8.33
2018-12-08T02:49:32.116Z,6.03
2018-12-08T02:51:59.754Z,7.47
2018-12-08T02:54:27.513Z,9.67
2018-12-08T02:56:55.100Z,9.07
2018-12-08T02:59:22.811Z,10.27
2018-12-08T03:01:50.564Z,11.20
2018-12-08T03:04:18.094Z,6.97
2018-12-08T03:06:45.663Z,11.53
2018-12-08T03:09:13.417Z,6.70
2018-12-08T03:11:41.237Z,14.60
2018-12-08T03:14:08.944Z,6.53
2018-12-08T03:16:36.517Z,8.60
2018-12-08T03:19:04.100Z,7.67
2018-12-08T03:21:31.620Z,7.33
2018-12-08T03:23:59.262Z,5.53
2018-12-08T03:26:27.144Z,10.00
2018-12-08T03:28:54.687Z,5.07
2018-12-08T03:31:22.278Z,10.37
2018-12-08T03:33:50.116Z,12.47
2018-12-08T03:36:17.765Z,6.53
2018-12-08T03:38:45.335Z,8.27
2018-12-08T03:41:12.880Z,9.40
2018-12-08T03:43:40.609Z,13.47
2018-12-08T03:46:08.151Z,8.83
2018-12-08T03:48:35.731Z,6.07
2018-12-08T03:51:03.694Z,10.30
2018-12-08T03:53:31.232Z,7.80
2018-12-08T03:55:58.795Z,12.93
2018-12-08T03:58:26.447Z,7.33
2018-12-08T04:00:54.019Z,6.87
2018-12-08T04:03:21.653Z,6.20
2018-12-08T04:05:49.331Z,9.07
2018-12-08T04:08:16.939Z,5.90
2018-12-08T04:10:44.499Z,7.07
2018-12-08T04:13:12.082Z,8.07
2018-12-08T04:15:39.614Z,5.83
2018-12-08T04:18:07.525Z,8.53
2018-12-08T04:20:35.062Z,6.03
2018-12-08T04:23:02.743Z,6.50
2018-12-08T04:25:30.405Z,7.30
2018-12-08T04:27:57.926Z,10.80
2018-12-08T04:30:25.494Z,10.53
2018-12-08T04:32:53.193Z,11.67
2018-12-08T04:35:20.732Z,4.30
2018-12-08T04:37:48.274Z,9.63
2018-12-08T04:40:15.958Z,6.27
2018-12-08T04:42:43.498Z,11.73
2018-12-08T04:45:11.062Z,9.57
2018-12-08T04:47:38.587Z,6.23
2018-12-08T04:50:06.208Z,6.27
2018-12-08T04:52:33.739Z,5.73
2018-12-08T04:55:01.614Z,9.53
2018-12-08T04:57:29.202Z,5.77
2018-12-08T04:59:56.772Z,7.20
2018-12-08T05:02:24.337Z,6.03
2018-12-08T05:04:51.866Z,3.73
2018-12-08T05:07:19.449Z,8.33
2018-12-08T05:09:47.163Z,6.20
2018-12-08T05:12:14.753Z,7.07
2018-12-08T05:14:42.562Z,8.87
2018-12-08T05:17:10.104Z,10.03
2018-12-08T05:19:37.654Z,8.00
2018-12-08T05:22:05.246Z,10.27
2018-12-08T05:24:32.838Z,9.30
2018-12-08T05:27:00.738Z,6.87
2018-12-08T05:29:28.358Z,10.87
2018-12-08T05:31:56.067Z,6.07
2018-12-08T05:34:23.619Z,7.70
2018-12-08T05:36:51.194Z,12.63
2018-12-08T05:39:19.233Z,4.03
2018-12-08T05:41:46.750Z,7.00
2018-12-08T05:44:14.455Z,9.60
2018-12-08T05:46:41.993Z,11.07
2018-12-08T05:49:09.498Z,3.87
2018-12-08T05:51:37.154Z,5.33
2018-12-08T05:54:04.791Z,6.93
2018-12-08T05:56:32.527Z,5.27
2018-12-08T05:59:00.117Z,12.47
2018-12-08T06:01:27.679Z,5.67
2018-12-08T06:03:55.350Z,5.50
2018-12-08T06:06:22.880Z,5.50
2018-12-08T06:08:50.432Z,4.10
2018-12-08T06:11:18.038Z,3.63
2018-12-08T06:13:45.589Z,3.27
2018-12-08T06:16:13.097Z,1.70
2018-12-08T06:18:40.652Z,3.50
2018-12-08T06:21:08.174Z,0.83
2018-12-08T06:23:35.798Z,2.20
2018-12-08T06:26:05.938Z,2.70
2018-12-08T06:28:33.703Z,2.53
2018-12-08T06:31:01.250Z,2.50
2018-12-08T06:33:28.796Z,2.30
2018-12-08T06:35:56.375Z,4.10
2018-12-08T06:38:25.329Z,4.63
2018-12-08T06:40:53.092Z,2.70
2018-12-08T06:43:20.858Z,3.70
2018-12-08T06:45:48.408Z,5.47
2018-12-08T06:48:15.983Z,4.63
2018-12-08T06:50:43.550Z,4.10
2018-12-08T06:53:11.123Z,3.53
2018-12-08T06:55:38.811Z,3.00
2018-12-08T06:58:06.377Z,3.73
2018-12-08T07:00:33.888Z,2.10
2018-12-08T07:03:01.927Z,6.43
2018-12-08T07:05:29.451Z,2.43
2018-12-08T07:07:57.112Z,2.67
2018-12-08T07:10:24.828Z,3.03
2018-12-08T07:12:52.365Z,3.77
2018-12-08T07:15:20.083Z,5.13
2018-12-08T07:17:47.594Z,7.37
2018-12-08T07:20:15.178Z,5.43
2018-12-08T07:22:42.699Z,2.57
2018-12-08T07:25:10.277Z,5.37
2018-12-08T07:27:37.800Z,2.43
2018-12-08T07:30:07.652Z,3.43
2018-12-08T07:32:38.854Z,4.17
2018-12-08T07:35:05.332Z,2.23
2018-12-08T07:37:32.848Z,3.17
2018-12-08T07:40:00.399Z,4.40
2018-12-08T07:42:27.960Z,2.17
2018-12-08T07:44:55.600Z,3.67
2018-12-08T07:47:23.160Z,2.57
2018-12-08T07:49:50.684Z,2.90
2018-12-08T07:52:18.433Z,2.80
2018-12-08T07:54:45.952Z,4.23
2018-12-08T07:57:13.617Z,3.03
2018-12-08T07:59:41.206Z,2.93
2018-12-08T08:02:08.735Z,6.33
2018-12-08T08:04:36.565Z,2.87
2018-12-08T08:07:04.618Z,2.47
2018-12-08T08:09:32.167Z,2.87
2018-12-08T08:12:00.045Z,3.67
2018-12-08T08:14:27.674Z,2.53
2018-12-08T08:16:55.225Z,3.70
2018-12-08T08:19:23.029Z,2.10
2018-12-08T08:21:50.694Z,2.07
2018-12-08T08:24:18.567Z,1.37
2018-12-08T08:26:46.135Z,0.83
2018-12-08T08:29:13.889Z,3.27
2018-12-08T08:31:41.448Z,3.17
2018-12-08T08:34:09.015Z,2.57
2018-12-08T08:36:36.789Z,3.07
2018-12-08T08:39:06.432Z,2.23
2018-12-08T08:41:34.102Z,2.03
2018-12-08T08:44:01.628Z,2.50
2018-12-08T08:46:29.512Z,3.07
2018-12-08T08:48:57.174Z,1.80
2018-12-08T08:51:24.713Z,2.73
2018-12-08T08:53:52.509Z,4.00
2018-12-08T08:56:20.075Z,5.53
2018-12-08T08:58:47.765Z,0.97
2018-12-08T09:01:15.660Z,2.07
2018-12-08T09:03:43.609Z,2.13
2018-12-08T09:06:11.238Z,2.30
2018-12-08T09:08:38.767Z,4.40
2018-12-08T09:11:06.317Z,3.33
2018-12-08T09:13:33.948Z,1.90
2018-12-08T09:16:01.718Z,1.80
2018-12-08T09:18:29.269Z,1.10
2018-12-08T09:20:56.932Z,0.73
2018-12-08T09:23:24.525Z,0.90
2018-12-08T09:25:52.072Z,1.47
2018-12-08T09:28:19.771Z,3.03
2018-12-08T09:30:47.310Z,1.10
2018-12-08T09:33:14.853Z,0.90
2018-12-08T09:35:42.464Z,1.17
2018-12-08T09:38:10.037Z,0.87
2018-12-08T09:40:37.787Z,0.67
2018-12-08T09:43:05.319Z,1.40
2018-12-08T09:45:32.999Z,0.30
2018-12-08T09:48:00.543Z,1.20
2018-12-08T09:50:28.095Z,2.07
2018-12-08T09:53:08.469Z,0.40
2018-12-08T09:55:36.028Z,1.90
2018-12-08T09:58:03.578Z,0.70
2018-12-08T10:00:31.110Z,2.50
2018-12-08T10:02:58.670Z,2.03
2018-12-08T10:05:26.224Z,2.40
2018-12-08T10:07:54.009Z,4.73
2018-12-08T10:10:21.568Z,3.50
2018-12-08T10:12:49.123Z,3.23
2018-12-08T10:15:16.947Z,3.50
2018-12-08T10:17:44.510Z,3.33
2018-12-08T10:20:12.072Z,5.53
2018-12-08T10:22:39.615Z,5.67
2018-12-08T10:25:07.193Z,1.73
2018-12-08T10:27:34.984Z,3.03
2018-12-08T10:30:02.507Z,3.73
2018-12-08T10:32:30.229Z,3.07
2018-12-08T10:34:57.850Z,3.20
2018-12-08T10:37:25.744Z,5.67
2018-12-08T10:39:53.275Z,6.07
2018-12-08T10:42:20.815Z,3.43
2018-12-08T10:44:48.388Z,5.10
2018-12-08T10:47:15.965Z,2.13
2018-12-08T10:49:43.565Z,9.50
2018-12-08T10:52:11.270Z,4.70
2018-12-08T10:54:38.874Z,2.63
2018-12-08T10:57:06.429Z,5.53
2018-12-08T10:59:34.028Z,1.70
2018-12-08T11:02:01.801Z,2.37
2018-12-08T11:04:29.348Z,4.00
2018-12-08T11:06:56.886Z,5.77
2018-12-08T11:09:24.635Z,5.40
2018-12-08T11:11:52.528Z,3.17
2018-12-08T11:14:20.069Z,2.70
2018-12-08T11:16:48.033Z,3.50
2018-12-08T11:19:15.866Z,3.13
2018-12-08T11:21:43.424Z,2.87
2018-12-08T11:24:11.319Z,3.03
2018-12-08T11:26:38.874Z,1.43
2018-12-08T11:29:06.550Z,2.33
2018-12-08T11:31:34.141Z,2.07
2018-12-08T11:34:02.398Z,2.80
2018-12-08T11:36:29.931Z,2.77
2018-12-08T11:38:57.669Z,1.77
2018-12-08T11:41:25.471Z,1.97
2018-12-08T11:43:53.041Z,2.17
2018-12-08T11:46:20.738Z,1.63
2018-12-08T11:48:48.445Z,1.97
2018-12-08T11:51:16.010Z,1.93
2018-12-08T11:53:43.680Z,1.47
2018-12-08T11:56:11.288Z,2.07
2018-12-08T11:58:39.115Z,2.83
2018-12-08T12:01:06.951Z,1.50
2018-12-08T12:03:34.495Z,1.90
2018-12-08T12:06:02.063Z,1.83
2018-12-08T12:08:29.639Z,3.67
2018-12-08T12:10:57.227Z,2.13
2018-12-08T12:13:24.897Z,3.23
2018-12-08T12:15:52.703Z,2.73
2018-12-08T12:18:20.263Z,3.83
2018-12-08T12:20:48.021Z,4.00
2018-12-08T12:23:15.557Z,6.10
2018-12-08T12:25:43.199Z,6.73
2018-12-08T12:28:11.212Z,7.37
2018-12-08T12:30:39.038Z,5.20
2018-12-08T12:33:06.582Z,8.30
2018-12-08T12:35:41.079Z,6.67
2018-12-08T12:38:08.780Z,8.30
2018-12-08T12:40:36.620Z,11.83
2018-12-08T12:43:04.472Z,6.67
2018-12-08T12:45:32.048Z,7.17
2018-12-08T12:47:59.604Z,7.97
2018-12-08T12:50:27.173Z,11.17
2018-12-08T12:52:54.728Z,12.53
2018-12-08T12:55:22.387Z,12.73
2018-12-08T12:57:49.923Z,13.77
2018-12-08T13:00:17.642Z,15.50
2018-12-08T13:02:45.211Z,6.80
2018-12-08T13:05:12.776Z,9.53
2018-12-08T13:07:40.293Z,8.90
2018-12-08T13:10:07.978Z,10.80
2018-12-08T13:12:35.498Z,14.33
2018-12-08T13:15:03.152Z,10.17
2018-12-08T13:17:30.679Z,10.87
2018-12-08T13:19:58.263Z,10.37
2018-12-08T13:22:26.082Z,10.03
2018-12-08T13:24:57.715Z,11.33
2018-12-08T13:27:25.250Z,15.40
2018-12-08T13:29:52.797Z,10.90
2018-12-08T13:32:20.350Z,12.73
2018-12-08T13:34:47.887Z,13.40
2018-12-08T13:37:15.480Z,15.10
2018-12-08T13:39:43.015Z,14.23
2018-12-08T13:42:10.572Z,18.00
2018-12-08T13:44:38.110Z,17.43
2018-12-08T13:47:06.003Z,12.33
2018-12-08T13:49:33.569Z,14.93
2018-12-08T13:52:01.302Z,8.30
2018-12-08T13:54:47.495Z,9.87
2018-12-08T13:57:15.316Z,7.40
2018-12-08T13:59:46.870Z,9.97
2018-12-08T14:02:14.578Z,10.97
2018-12-08T14:04:42.290Z,11.73
2018-12-08T14:07:09.893Z,19.27
2018-12-08T14:09:37.538Z,7.60
2018-12-08T14:12:05.354Z,11.78
2018-12-08T14:14:33.189Z,12.20
2018-12-08T14:17:01.904Z,14.60
2018-12-08T14:19:29.642Z,10.20
2018-12-08T14:21:57.462Z,13.93
2018-12-08T14:24:25.426Z,11.03
2018-12-08T14:26:52.958Z,14.40
2018-12-08T14:29:20.843Z,11.43
2018-12-08T14:31:48.734Z,13.27
2018-12-08T14:34:16.834Z,11.47
2018-12-08T14:36:44.557Z,9.70
2018-12-08T14:39:12.338Z,10.95
2018-12-08T14:41:39.904Z,14.17
2018-12-08T14:44:07.575Z,12.90
2018-12-08T14:46:35.148Z,10.70
2018-12-08T14:49:02.711Z,11.67
2018-12-08T14:51:30.459Z,7.17
2018-12-08T14:53:59.850Z,9.03
2018-12-08T14:56:27.374Z,9.73
2018-12-08T14:58:54.952Z,10.07
2018-12-08T15:01:22.490Z,9.55
2018-12-08T15:03:50.324Z,9.03
2018-12-08T15:06:17.879Z,7.97
2018-12-08T15:08:45.425Z,5.97
2018-12-08T15:11:12.973Z,7.07
2018-12-08T15:13:40.558Z,11.17
2018-12-08T15:16:08.155Z,10.03
2018-12-08T15:18:35.734Z,12.27
2018-12-08T15:21:03.305Z,11.07
2018-12-08T15:23:30.883Z,16.17
2018-12-08T15:25:58.507Z,11.90
2018-12-08T15:28:26.078Z,18.90
2018-12-08T15:30:53.750Z,17.63
2018-12-08T15:33:21.326Z,13.33
2018-12-08T15:35:48.853Z,15.77
2018-12-08T15:38:16.425Z,15.13
2018-12-08T15:40:44.039Z,14.33
2018-12-08T15:43:11.625Z,19.53
2018-12-08T15:45:39.624Z,14.80
2018-12-08T15:48:07.181Z,17.60
2018-12-08T15:50:35.066Z,12.63
2018-12-08T15:53:02.628Z,10.07
2018-12-08T15:55:30.210Z,16.97
2018-12-08T15:57:57.898Z,14.57
2018-12-08T16:00:25.448Z,18.03
2018-12-08T16:02:53.017Z,13.53
2018-12-08T16:05:20.633Z,13.90
2018-12-08T16:07:48.181Z,15.20
2018-12-08T16:10:15.785Z,17.17
2018-12-08T16:12:43.417Z,14.33
2018-12-08T16:15:11.170Z,20.17
2018-12-08T16:17:39.032Z,11.87
2018-12-08T16:20:09.102Z,15.43
2018-12-08T16:22:36.662Z,11.17
2018-12-08T16:25:04.806Z,14.40
2018-12-08T16:27:32.340Z,14.67
2018-12-08T16:29:59.902Z,9.43
2018-12-08T16:32:27.704Z,16.27
2018-12-08T16:34:55.360Z,13.27
2018-12-08T16:37:23.047Z,12.80
2018-12-08T16:39:50.619Z,11.43
2018-12-08T16:42:18.299Z,16.10
2018-12-08T16:44:46.019Z,13.97
2018-12-08T16:47:13.671Z,17.60
2018-12-08T16:49:41.489Z,17.87
2018-12-08T16:52:09.191Z,15.03
2018-12-08T16:54:36.776Z,17.83
2018-12-08T16:57:04.299Z,17.97
2018-12-08T16:59:32.079Z,13.33
2018-12-08T17:01:59.760Z,17.03
2018-12-08T17:04:27.605Z,15.03
2018-12-08T17:06:55.204Z,16.20
2018-12-08T17:09:22.768Z,16.53
2018-12-08T17:11:50.324Z,19.43
2018-12-08T17:14:17.916Z,19.73
2018-12-08T17:16:45.494Z,19.50
2018-12-08T17:19:12.982Z,13.30
2018-12-08T17:21:40.648Z,15.30
2018-12-08T17:24:08.206Z,11.60
2018-12-08T17:26:35.786Z,14.37
2018-12-08T17:29:03.446Z,18.70
2018-12-08T17:31:31.287Z,22.90
2018-12-08T17:33:58.825Z,19.13
2018-12-08T17:36:26.428Z,18.33
2018-12-08T17:38:54.259Z,21.03
2018-12-08T17:41:21.821Z,21.30
2018-12-08T17:43:49.408Z,19.50
2018-12-08T17:46:17.390Z,21.07
2018-12-08T17:48:44.959Z,22.60
2018-12-08T17:51:12.489Z,22.37
2018-12-08T17:53:40.318Z,13.40
2018-12-08T17:56:08.491Z,20.77
2018-12-08T17:58:36.114Z,21.57
2018-12-08T18:01:03.807Z,17.80
2018-12-08T18:03:31.426Z,22.13
2018-12-08T18:05:59.004Z,19.70
2018-12-08T18:08:26.779Z,22.07
2018-12-08T18:10:54.561Z,23.33
2018-12-08T18:13:22.301Z,19.80
2018-12-08T18:15:50.096Z,19.73
2018-12-08T18:18:17.859Z,15.83
2018-12-08T18:20:45.539Z,18.97
2018-12-08T18:23:13.284Z,21.10
2018-12-08T18:25:40.829Z,20.37
2018-12-08T18:28:08.368Z,11.37
2018-12-08T18:30:36.100Z,16.77
2018-12-08T18:33:03.765Z,21.40
2018-12-08T18:35:31.423Z,22.13
2018-12-08T18:37:59.433Z,18.93
2018-12-08T18:40:26.995Z,13.03
2018-12-08T18:42:54.534Z,11.33
2018-12-08T18:45:22.116Z,14.50
2018-12-08T18:47:49.651Z,13.83
2018-12-08T18:50:17.226Z,11.20
2018-12-08T18:52:44.875Z,17.23
2018-12-08T18:55:12.466Z,12.17
2018-12-08T18:57:40.203Z,9.30
2018-12-08T19:00:10.285Z,13.30
2018-12-08T19:02:37.950Z,11.97
2018-12-08T19:05:08.564Z,6.60
2018-12-08T19:07:36.285Z,3.33
2018-12-08T19:10:04.398Z,3.53
2018-12-08T19:12:31.969Z,2.67
2018-12-08T19:14:59.579Z,4.30
2018-12-08T19:17:27.123Z,2.10
2018-12-08T19:19:54.725Z,4.50
2018-12-08T19:22:22.310Z,4.23
2018-12-08T19:24:49.860Z,4.80
2018-12-08T19:27:17.797Z,3.17
2018-12-08T19:29:45.434Z,5.03
2018-12-08T19:32:13.287Z,2.83
2018-12-08T19:34:40.845Z,3.13
2018-12-08T19:37:08.376Z,1.87
2018-12-08T19:39:35.933Z,2.67
2018-12-08T19:42:03.611Z,2.17
2018-12-08T19:44:31.167Z,4.97
2018-12-08T19:46:58.894Z,2.80
2018-12-08T19:49:26.498Z,4.00
2018-12-08T19:51:54.675Z,3.20
2018-12-08T19:54:22.361Z,3.97
2018-12-08T19:56:49.987Z,2.17
2018-12-08T19:59:17.691Z,5.87
2018-12-08T20:01:45.238Z,2.73
2018-12-08T20:04:13.006Z,1.60
2018-12-08T20:06:40.894Z,6.70
2018-12-08T20:09:08.726Z,3.37
2018-12-08T20:11:36.685Z,4.03
2018-12-08T20:14:04.429Z,2.47
2018-12-08T20:16:31.991Z,4.77
2018-12-08T20:18:59.554Z,2.67
2018-12-08T20:21:27.090Z,1.00
2018-12-08T20:23:54.705Z,1.30
2018-12-08T20:26:22.273Z,1.27
2018-12-08T20:28:49.795Z,2.03
2018-12-08T20:31:17.849Z,1.43
2018-12-08T20:33:45.429Z,1.43
2018-12-08T20:36:13.184Z,1.40
2018-12-08T20:38:40.740Z,2.30
2018-12-08T20:41:08.305Z,1.67
2018-12-08T20:43:36.213Z,1.70
2018-12-08T20:46:03.976Z,1.10
2018-12-08T20:48:31.531Z,0.50
2018-12-08T20:50:59.413Z,1.37
2018-12-08T20:53:27.031Z,0.87
2018-12-08T20:55:54.620Z,0.63
2018-12-08T20:58:22.459Z,0.57
2018-12-08T21:00:50.229Z,0.60
2018-12-08T21:03:17.869Z,0.40
2018-12-08T21:05:45.491Z,0.37
2018-12-08T21:08:13.991Z,0.73
2018-12-08T21:10:41.710Z,2.00
2018-12-08T21:13:09.253Z,0.90
2018-12-08T21:15:36.796Z,0.30
2018-12-08T21:18:04.670Z,0.70
2018-12-08T21:20:32.375Z,0.80
2018-12-08T21:23:00.126Z,0.30
2018-12-08T21:25:27.721Z,0.50
2018-12-08T21:27:55.349Z,0.67
2018-12-08T21:30:22.932Z,0.40
2018-12-08T21:32:50.709Z,1.33
2018-12-08T21:35:18.355Z,0.47
2018-12-08T21:37:45.895Z,0.63
2018-12-08T21:40:17.725Z,0.60
2018-12-08T21:42:45.308Z,0.50
2018-12-08T21:45:12.846Z,0.57
2018-12-08T21:47:40.635Z,1.80
2018-12-08T21:50:08.184Z,1.60
2018-12-08T21:52:35.914Z,1.03
2018-12-08T21:55:04.282Z,0.30
2018-12-08T21:57:32.056Z,0.40
2018-12-08T21:59:59.658Z,0.60
2018-12-08T22:02:27.574Z,0.57
2018-12-08T22:04:55.183Z,0.57
2018-12-08T22:07:22.739Z,1.87
2018-12-08T22:09:51.437Z,0.80
2018-12-08T22:12:18.978Z,0.80
2018-12-08T22:14:52.151Z,1.93
2018-12-08T22:17:19.671Z,1.03
2018-12-08T22:19:47.240Z,1.73
2018-12-08T22:22:14.834Z,2.90
2018-12-08T22:24:42.405Z,0.93
2018-12-08T22:27:10.177Z,2.17
2018-12-08T22:29:37.762Z,3.80
2018-12-08T22:32:05.315Z,0.93
2018-12-08T22:34:33.027Z,1.90
2018-12-08T22:37:00.573Z,1.60
2018-12-08T22:39:28.255Z,4.60
2018-12-08T22:41:56.215Z,3.07
2018-12-08T22:44:23.858Z,1.50
2018-12-08T22:46:51.498Z,3.97
2018-12-08T22:49:19.073Z,3.30
2018-12-08T22:51:47.022Z,4.37
2018-12-08T22:54:14.729Z,3.20
2018-12-08T22:56:42.272Z,3.83
2018-12-08T22:59:09.844Z,3.10
2018-12-08T23:01:37.393Z,3.07
2018-12-08T23:04:04.955Z,4.80
2018-12-08T23:06:32.712Z,4.90
2018-12-08T23:09:00.463Z,4.20
2018-12-08T23:11:28.055Z,7.17
2018-12-08T23:13:55.706Z,10.90
2018-12-08T23:16:23.222Z,4.70
2018-12-08T23:18:50.856Z,6.77
2018-12-08T23:21:18.398Z,5.73
2018-12-08T23:23:45.929Z,4.40
2018-12-08T23:26:13.623Z,3.73
2018-12-08T23:28:41.267Z,3.80
2018-12-08T23:31:08.841Z,4.67
2018-12-08T23:33:36.644Z,2.60
2018-12-08T23:36:04.161Z,3.03
2018-12-08T23:38:31.874Z,3.90
2018-12-08T23:40:59.429Z,3.07
2018-12-08T23:43:26.987Z,3.77
2018-12-08T23:45:54.554Z,5.70
2018-12-08T23:48:22.149Z,4.90
2018-12-08T23:50:49.882Z,5.40
2018-12-08T23:53:17.426Z,5.23
2018-12-08T23:55:45.399Z,6.93
2018-12-08T23:58:13.006Z,9.00
